createdAt,value
2022-11-04T00:01:10.981Z,0.17
2022-11-04T00:02:50.731Z,0.19
2022-11-04T00:04:30.513Z,0.18
2022-11-04T00:06:10.318Z,0.19
2022-11-04T00:07:50.046Z,0.19
2022-11-04T00:09:29.827Z,0.18
2022-11-04T00:11:09.593Z,0.17
2022-11-04T00:12:49.340Z,0.16
2022-11-04T00:14:29.108Z,0.17
2022-11-04T00:16:08.882Z,0.16
2022-11-04T00:17:48.653Z,0.17
2022-11-04T00:19:28.412Z,0.17
2022-11-04T00:21:08.182Z,0.17
2022-11-04T00:22:47.950Z,0.16
2022-11-04T00:24:27.712Z,0.18
2022-11-04T00:26:07.489Z,0.17
2022-11-04T00:27:47.258Z,0.16
2022-11-04T00:29:27.012Z,0.19
2022-11-04T00:31:06.811Z,0.19
2022-11-04T00:32:46.543Z,0.16
2022-11-04T00:34:26.334Z,0.17
2022-11-04T00:36:06.092Z,0.19
2022-11-04T00:37:45.861Z,0.17
2022-11-04T00:39:25.639Z,0.19
2022-11-04T00:41:05.383Z,0.19
2022-11-04T00:42:45.154Z,0.17
2022-11-04T00:44:24.964Z,0.17
2022-11-04T00:46:04.683Z,0.16
2022-11-04T00:47:44.469Z,0.16
2022-11-04T00:49:24.228Z,0.16
2022-11-04T00:52:43.753Z,0.19
2022-11-04T00:54:23.532Z,0.17
2022-11-04T00:56:03.295Z,0.18
2022-11-04T00:59:22.831Z,0.15
2022-11-04T01:01:02.599Z,0.17
2022-11-04T01:02:42.383Z,0.16
2022-11-04T01:04:22.156Z,0.17
2022-11-04T01:06:01.932Z,0.16
2022-11-04T01:07:41.678Z,0.18
2022-11-04T01:09:21.443Z,0.18
2022-11-04T01:11:01.213Z,0.18
2022-11-04T01:12:40.977Z,0.18
2022-11-04T01:14:20.739Z,0.17
2022-11-04T01:16:00.535Z,0.16
2022-11-04T01:17:40.269Z,0.16
2022-11-04T01:19:20.052Z,0.19
2022-11-04T01:20:59.801Z,0.18
2022-11-04T01:22:39.576Z,0.18
2022-11-04T01:24:19.375Z,0.17
2022-11-04T01:25:59.144Z,0.2
2022-11-04T01:27:38.888Z,0.17
2022-11-04T01:29:18.642Z,0.21
2022-11-04T01:30:58.412Z,0.19
2022-11-04T01:32:38.182Z,0.18
2022-11-04T01:34:17.941Z,0.21
2022-11-04T01:35:57.721Z,0.17
2022-11-04T01:37:37.489Z,0.19
2022-11-04T01:39:17.271Z,0.21
2022-11-04T01:40:57.024Z,0.18
2022-11-04T01:42:36.820Z,0.2
2022-11-04T01:44:16.575Z,0.19
2022-11-04T01:45:56.315Z,0.17
2022-11-04T01:47:36.128Z,0.18
2022-11-04T01:49:15.863Z,0.21
2022-11-04T01:50:55.659Z,0.21
2022-11-04T01:52:35.380Z,0.21
2022-11-04T01:54:15.154Z,0.18
2022-11-04T01:55:54.921Z,0.18
2022-11-04T01:57:34.678Z,0.21
2022-11-04T01:59:14.460Z,0.21
2022-11-04T02:02:33.993Z,0.21
2022-11-04T02:04:13.789Z,0.2
2022-11-04T02:05:53.523Z,0.17
2022-11-04T02:07:33.343Z,0.18
2022-11-04T02:09:13.059Z,0.2
2022-11-04T02:12:32.603Z,0.17
2022-11-04T02:14:12.355Z,0.19
2022-11-04T02:15:52.133Z,0.19
2022-11-04T02:17:31.930Z,0.18
2022-11-04T02:19:11.672Z,0.19
2022-11-04T02:20:51.431Z,0.17
2022-11-04T02:22:31.190Z,0.18
2022-11-04T02:24:10.966Z,0.19
2022-11-04T02:25:50.727Z,0.19
2022-11-04T02:27:30.537Z,0.16
2022-11-04T02:29:10.267Z,0.19
2022-11-04T02:30:50.031Z,0.19
2022-11-04T02:32:29.808Z,0.17
2022-11-04T02:34:09.562Z,0.18
2022-11-04T02:35:49.335Z,0.18
2022-11-04T02:37:29.144Z,0.17
2022-11-04T02:39:08.873Z,0.19
2022-11-04T02:40:48.647Z,0.18
2022-11-04T02:42:28.417Z,0.18
2022-11-04T02:44:08.188Z,0.19
2022-11-04T02:45:47.949Z,0.16
2022-11-04T02:47:27.735Z,0.16
2022-11-04T02:49:07.470Z,0.17
2022-11-04T02:52:27.017Z,0.16
2022-11-04T02:54:06.789Z,0.19
2022-11-04T02:55:46.545Z,0.17
2022-11-04T02:57:26.317Z,0.17
2022-11-04T02:59:06.077Z,0.19
2022-11-04T03:00:45.852Z,0.16
2022-11-04T03:02:25.610Z,0.19
2022-11-04T03:04:05.381Z,0.19
2022-11-04T03:05:45.163Z,0.17
2022-11-04T03:07:24.923Z,0.17
2022-11-04T03:09:04.695Z,0.16
2022-11-04T03:10:44.462Z,0.18
2022-11-04T03:12:24.214Z,0.17
2022-11-04T03:14:03.995Z,0.18
2022-11-04T03:15:43.750Z,0.18
2022-11-04T03:17:23.533Z,0.2
2022-11-04T03:19:03.328Z,0.19
2022-11-04T03:20:43.063Z,0.18
2022-11-04T03:22:22.826Z,0.18
2022-11-04T03:24:02.605Z,0.17
2022-11-04T03:25:42.364Z,0.17
2022-11-04T03:27:22.132Z,0.17
2022-11-04T03:29:01.889Z,0.21
2022-11-04T03:30:41.654Z,0.21
2022-11-04T03:32:21.417Z,0.21
2022-11-04T03:34:01.189Z,0.19
2022-11-04T03:35:40.956Z,0.22
2022-11-04T03:37:20.724Z,0.19
2022-11-04T03:39:00.505Z,0.21
2022-11-04T03:42:20.059Z,0.24
2022-11-04T03:43:59.798Z,0.21
2022-11-04T03:45:39.563Z,0.21
2022-11-04T03:47:19.347Z,0.24
2022-11-04T03:48:59.089Z,0.26
2022-11-04T03:50:38.993Z,0.22
2022-11-04T03:52:18.640Z,0.23
2022-11-04T03:53:58.409Z,0.22
2022-11-04T03:55:38.219Z,0.26
2022-11-04T03:57:17.934Z,0.23
2022-11-04T03:58:57.733Z,0.25
2022-11-04T04:00:37.462Z,0.24
2022-11-04T04:02:17.265Z,0.27
2022-11-04T04:03:57.000Z,0.26
2022-11-04T04:07:16.568Z,0.25
2022-11-04T04:08:56.309Z,0.27
2022-11-04T04:10:36.068Z,0.23
2022-11-04T04:12:15.837Z,0.23
2022-11-04T04:13:55.607Z,0.26
2022-11-04T04:15:35.372Z,0.25
2022-11-04T04:17:15.144Z,0.23
2022-11-04T04:18:54.918Z,0.25
2022-11-04T04:22:14.454Z,0.25
2022-11-04T04:23:54.231Z,0.23
2022-11-04T04:25:33.979Z,0.24
2022-11-04T04:27:13.752Z,0.23
2022-11-04T04:28:53.539Z,0.25
2022-11-04T04:30:33.305Z,0.22
2022-11-04T04:32:13.063Z,0.24
2022-11-04T04:33:52.818Z,0.23
2022-11-04T04:35:32.671Z,0.26
2022-11-04T04:37:12.351Z,0.24
2022-11-04T04:38:52.119Z,0.24
2022-11-04T04:40:31.887Z,0.23
2022-11-04T04:42:11.650Z,0.23
2022-11-04T04:43:51.430Z,0.24
2022-11-04T04:45:31.263Z,0.26
2022-11-04T04:47:10.948Z,0.25
2022-11-04T04:48:50.717Z,0.26
2022-11-04T04:50:30.528Z,0.27
2022-11-04T04:52:10.255Z,0.25
2022-11-04T04:53:50.020Z,0.3
2022-11-04T04:55:29.829Z,0.27
2022-11-04T04:57:09.569Z,0.3
2022-11-04T04:58:49.319Z,0.29
2022-11-04T05:00:29.095Z,0.28
2022-11-04T05:02:08.862Z,0.29
2022-11-04T05:03:48.635Z,0.29
2022-11-04T05:05:28.390Z,0.32
2022-11-04T05:07:08.161Z,0.29
2022-11-04T05:08:47.940Z,0.31
2022-11-04T05:10:27.694Z,0.33
2022-11-04T05:12:07.454Z,0.33
2022-11-04T05:13:47.239Z,0.35
2022-11-04T05:15:27.004Z,0.36
2022-11-04T05:17:06.776Z,0.39
2022-11-04T05:18:46.548Z,0.4
2022-11-04T05:20:26.325Z,0.4
2022-11-04T05:22:06.106Z,0.48
2022-11-04T05:23:45.837Z,0.52
2022-11-04T05:25:25.625Z,0.6
2022-11-04T05:27:05.378Z,0.72
2022-11-04T05:28:45.147Z,0.82
2022-11-04T05:30:24.900Z,1
2022-11-04T05:32:04.681Z,1.15
2022-11-04T05:33:44.446Z,1.36
2022-11-04T05:35:24.223Z,1.74
2022-11-04T05:38:43.746Z,3.01
2022-11-04T05:40:23.509Z,3.95
2022-11-04T05:42:03.350Z,5.28
2022-11-04T05:43:43.072Z,7.29
2022-11-04T05:45:22.824Z,10.3
2022-11-04T05:47:02.584Z,14.07
2022-11-04T05:48:42.357Z,18.9
2022-11-04T05:50:22.115Z,24.64
2022-11-04T05:52:01.932Z,28.01
2022-11-04T05:53:41.644Z,26.77
2022-11-04T05:55:21.410Z,26.79
2022-11-04T05:57:01.175Z,26.81
2022-11-04T05:58:40.943Z,26.81
2022-11-04T06:00:20.720Z,26.81
2022-11-04T06:02:00.491Z,26.82
2022-11-04T06:03:40.252Z,26.83
2022-11-04T06:05:20.044Z,26.85
2022-11-04T06:06:59.827Z,26.85
2022-11-04T06:08:39.557Z,26.85
2022-11-04T06:10:19.322Z,26.86
2022-11-04T06:11:59.169Z,26.87
2022-11-04T06:13:38.850Z,26.88
2022-11-04T06:15:18.626Z,26.87
2022-11-04T06:16:58.406Z,26.89
2022-11-04T06:18:38.159Z,26.89
2022-11-04T06:20:17.919Z,26.88
2022-11-04T06:21:57.718Z,26.88
2022-11-04T06:23:37.458Z,26.87
2022-11-04T06:25:17.215Z,26.89
2022-11-04T06:26:56.999Z,26.9
2022-11-04T06:28:36.784Z,26.9
2022-11-04T06:30:16.526Z,26.92
2022-11-04T06:31:56.305Z,26.89
2022-11-04T06:33:36.060Z,26.93
2022-11-04T06:35:15.865Z,26.94
2022-11-04T06:36:55.612Z,26.92
2022-11-04T06:38:35.419Z,26.92
2022-11-04T06:40:15.191Z,26.92
2022-11-04T06:41:55.003Z,26.93
2022-11-04T06:43:34.683Z,26.92
2022-11-04T06:45:14.454Z,26.92
2022-11-04T06:46:54.261Z,26.9
2022-11-04T06:48:33.989Z,26.89
2022-11-04T06:50:13.803Z,26.89
2022-11-04T06:51:53.498Z,26.88
2022-11-04T06:53:33.282Z,29.34
2022-11-04T06:55:13.042Z,26.88
2022-11-04T06:56:52.860Z,26.9
2022-11-04T06:58:32.587Z,26.9
2022-11-04T07:00:12.435Z,26.91
2022-11-04T07:01:52.190Z,26.91
2022-11-04T07:03:31.890Z,26.91
2022-11-04T07:05:11.691Z,26.92
2022-11-04T07:06:51.412Z,26.91
2022-11-04T07:08:31.170Z,26.92
2022-11-04T07:10:10.946Z,26.93
2022-11-04T07:11:50.739Z,26.93
2022-11-04T07:13:30.477Z,26.94
2022-11-04T07:15:10.244Z,26.95
2022-11-04T07:16:50.059Z,26.95
2022-11-04T07:18:29.810Z,26.96
2022-11-04T07:20:09.543Z,27
2022-11-04T07:21:49.318Z,27.04
2022-11-04T07:23:29.103Z,27.07
2022-11-04T07:25:08.840Z,27.11
2022-11-04T07:26:48.689Z,27.13
2022-11-04T07:28:28.418Z,27.15
2022-11-04T07:30:08.222Z,27.17
2022-11-04T07:31:47.992Z,27.17
2022-11-04T07:33:27.699Z,27.16
2022-11-04T07:35:07.473Z,27.16
2022-11-04T07:36:47.253Z,27.17
2022-11-04T07:38:27.029Z,27.17
2022-11-04T07:41:46.563Z,27.23
2022-11-04T07:43:26.320Z,27.27
2022-11-04T07:45:06.099Z,27.34
2022-11-04T07:46:45.866Z,27.43
2022-11-04T07:48:25.625Z,27.55
2022-11-04T07:50:05.410Z,27.69
2022-11-04T07:51:45.172Z,27.87
2022-11-04T07:53:24.947Z,53.88
2022-11-04T07:55:04.705Z,73.33
2022-11-04T07:56:44.486Z,75.79
2022-11-04T07:58:24.242Z,75.14
2022-11-04T08:00:04.077Z,74.83
2022-11-04T08:01:43.800Z,74.42
2022-11-04T08:03:23.596Z,76.08
2022-11-04T08:05:03.444Z,76.12
2022-11-04T08:06:43.196Z,76.07
2022-11-04T08:08:22.950Z,75.78
2022-11-04T08:10:02.655Z,76.04
2022-11-04T08:11:42.464Z,69.71
2022-11-04T08:13:22.185Z,47.09
2022-11-04T08:15:02.035Z,32.57
2022-11-04T08:16:41.792Z,41.02
2022-11-04T08:18:21.577Z,70.65
2022-11-04T08:20:01.298Z,69.51
2022-11-04T08:21:41.097Z,70.69
2022-11-04T08:23:20.836Z,75.55
2022-11-04T08:25:00.627Z,78.26
2022-11-04T08:26:40.350Z,77.79
2022-11-04T08:28:20.130Z,70.62
2022-11-04T08:29:59.909Z,43.99
2022-11-04T08:31:39.658Z,31.17
2022-11-04T08:33:19.419Z,65.99
2022-11-04T08:34:59.201Z,49.85
2022-11-04T08:36:38.964Z,29.35
2022-11-04T08:38:18.744Z,29.39
2022-11-04T08:39:58.518Z,29.42
2022-11-04T08:41:38.269Z,29.49
2022-11-04T08:43:18.074Z,29.59
2022-11-04T08:44:57.842Z,29.07
2022-11-04T08:46:37.639Z,29.12
2022-11-04T08:48:17.379Z,29.18
2022-11-04T08:51:36.903Z,29.28
2022-11-04T08:53:16.666Z,29.29
2022-11-04T08:54:56.445Z,29.26
2022-11-04T08:56:36.212Z,29.2
2022-11-04T08:58:15.975Z,29.06
2022-11-04T08:59:55.739Z,29.59
2022-11-04T09:01:35.503Z,29.5
2022-11-04T09:03:15.269Z,29.47
2022-11-04T09:04:55.046Z,29.39
2022-11-04T09:08:14.595Z,29.25
2022-11-04T09:09:54.361Z,29.33
2022-11-04T09:11:34.141Z,29.49
2022-11-04T09:13:13.902Z,29.67
2022-11-04T09:14:53.672Z,29.22
2022-11-04T09:16:33.468Z,29.33
2022-11-04T09:18:13.229Z,29.39
2022-11-04T09:19:53.021Z,29.45
2022-11-04T09:21:32.742Z,29.61
2022-11-04T09:23:12.594Z,29.83
2022-11-04T09:24:52.322Z,29.81
2022-11-04T09:26:32.067Z,29.59
2022-11-04T09:28:11.827Z,29.2
2022-11-04T09:29:51.594Z,29.26
2022-11-04T09:31:31.362Z,29.29
2022-11-04T09:33:11.172Z,30.4
2022-11-04T09:34:50.906Z,81.37
2022-11-04T09:36:30.684Z,81.11
2022-11-04T09:38:10.447Z,81.11
2022-11-04T09:39:50.207Z,82.02
2022-11-04T09:41:29.980Z,83.07
2022-11-04T09:43:09.757Z,83.64
2022-11-04T09:44:49.552Z,84.26
2022-11-04T09:46:29.369Z,84.4
2022-11-04T09:48:09.087Z,84.64
2022-11-04T09:49:48.844Z,84.63
2022-11-04T09:51:28.647Z,84.28
2022-11-04T09:53:08.387Z,84.32
2022-11-04T09:54:48.198Z,84.66
2022-11-04T09:56:27.925Z,84.42
2022-11-04T09:58:07.693Z,83.71
2022-11-04T09:59:47.525Z,83.21
2022-11-04T10:01:27.233Z,82.05
2022-11-04T10:03:07.003Z,80.62
2022-11-04T10:04:46.786Z,79.58
2022-11-04T10:06:26.549Z,77.17
2022-11-04T10:08:06.339Z,72.43
2022-11-04T10:09:46.130Z,60.68
2022-11-04T10:11:25.858Z,38.59
2022-11-04T10:13:05.633Z,29.64
2022-11-04T10:14:45.383Z,56.69
2022-11-04T10:16:25.160Z,29.5
2022-11-04T10:18:04.952Z,29.38
2022-11-04T10:19:44.705Z,29.27
2022-11-04T10:21:24.474Z,29.27
2022-11-04T10:23:04.239Z,29.22
2022-11-04T10:24:44.020Z,29.22
2022-11-04T10:26:23.816Z,29.23
2022-11-04T10:28:03.551Z,29.28
2022-11-04T10:29:43.334Z,29.35
2022-11-04T10:31:23.126Z,29.45
2022-11-04T10:33:02.870Z,29.53
2022-11-04T10:34:42.650Z,29.53
2022-11-04T10:36:22.405Z,29.55
2022-11-04T10:38:02.176Z,29.6
2022-11-04T10:39:41.994Z,29.62
2022-11-04T10:41:21.809Z,29.64
2022-11-04T10:43:01.503Z,29.64
2022-11-04T10:44:41.276Z,29.61
2022-11-04T10:46:21.025Z,29.65
2022-11-04T10:48:00.818Z,29.7
2022-11-04T10:49:40.585Z,29.72
2022-11-04T10:51:20.341Z,29.79
2022-11-04T10:53:00.103Z,29.8
2022-11-04T10:54:39.975Z,29.79
2022-11-04T10:56:19.633Z,29.75
2022-11-04T10:57:59.531Z,29.68
2022-11-04T10:59:39.246Z,29.59
2022-11-04T11:01:19.006Z,29.49
2022-11-04T11:02:58.740Z,29.47
2022-11-04T11:04:38.499Z,29.46
2022-11-04T11:06:18.357Z,29.47
2022-11-04T11:07:58.068Z,29.54
2022-11-04T11:09:37.820Z,29.54
2022-11-04T11:11:17.637Z,29.52
2022-11-04T11:12:57.362Z,29.48
2022-11-04T11:14:37.107Z,77.83
2022-11-04T11:16:16.911Z,40.99
2022-11-04T11:17:56.652Z,29.4
2022-11-04T11:19:36.433Z,29.3
2022-11-04T11:21:16.246Z,29.26
2022-11-04T11:22:56.081Z,29.2
2022-11-04T11:24:35.740Z,29.15
2022-11-04T11:26:15.529Z,29.09
2022-11-04T11:27:55.317Z,29.07
2022-11-04T11:29:35.070Z,29.06
2022-11-04T11:31:14.898Z,29.05
2022-11-04T11:32:54.609Z,29.02
2022-11-04T11:34:34.358Z,29
2022-11-04T11:36:14.117Z,28.98
2022-11-04T11:37:53.924Z,28.87
2022-11-04T11:39:33.673Z,28.95
2022-11-04T11:41:13.449Z,28.95
2022-11-04T11:44:32.975Z,28.94
2022-11-04T11:46:12.747Z,28.94
2022-11-04T11:49:32.389Z,28.97
2022-11-04T11:51:12.078Z,28.97
2022-11-04T11:52:51.822Z,28.96
2022-11-04T11:54:31.640Z,28.94
2022-11-04T11:56:11.400Z,28.95
2022-11-04T11:57:51.146Z,28.93
2022-11-04T11:59:30.917Z,28.9
2022-11-04T12:01:10.775Z,28.89
2022-11-04T12:02:50.462Z,28.9
2022-11-04T12:04:30.230Z,28.92
2022-11-04T12:06:09.991Z,28.91
2022-11-04T12:07:49.775Z,28.93
2022-11-04T12:11:09.307Z,28.94
2022-11-04T12:12:49.071Z,28.94
2022-11-04T12:14:28.878Z,28.95
2022-11-04T12:16:08.616Z,44.67
2022-11-04T12:17:48.469Z,33.84
2022-11-04T12:19:28.178Z,29.02
2022-11-04T12:21:07.935Z,29.01
2022-11-04T12:22:47.700Z,29.03
2022-11-04T12:24:27.504Z,29.03
2022-11-04T12:26:07.228Z,28.99
2022-11-04T12:27:47.019Z,29.01
2022-11-04T12:29:26.778Z,28.96
2022-11-04T12:31:06.563Z,29.02
2022-11-04T12:32:46.330Z,29.02
2022-11-04T12:34:26.097Z,29.02
2022-11-04T12:36:05.866Z,29.02
2022-11-04T12:37:45.645Z,29.01
2022-11-04T12:39:25.407Z,28.98
2022-11-04T12:41:05.167Z,28.95
2022-11-04T12:42:44.940Z,28.94
2022-11-04T12:44:24.732Z,28.92
2022-11-04T12:46:04.498Z,28.92
2022-11-04T12:47:44.286Z,28.89
2022-11-04T12:49:24.107Z,28.87
2022-11-04T12:51:03.792Z,28.85
2022-11-04T12:52:43.572Z,28.84
2022-11-04T12:54:23.346Z,28.8
2022-11-04T12:56:03.108Z,28.74
2022-11-04T12:57:42.873Z,28.75
2022-11-04T12:59:22.684Z,28.72
2022-11-04T13:01:02.530Z,28.69
2022-11-04T13:02:42.188Z,28.68
2022-11-04T13:04:22.045Z,28.68
2022-11-04T13:06:01.731Z,28.68
2022-11-04T13:07:41.495Z,28.66
2022-11-04T13:09:21.286Z,28.67
2022-11-04T13:11:01.037Z,28.66
2022-11-04T13:12:40.817Z,28.66
2022-11-04T13:14:20.570Z,28.65
2022-11-04T13:16:00.413Z,28.65
2022-11-04T13:17:40.164Z,42.87
2022-11-04T13:19:19.912Z,28.71
2022-11-04T13:20:59.672Z,28.7
2022-11-04T13:22:39.462Z,28.72
2022-11-04T13:24:19.202Z,28.7
2022-11-04T13:25:58.975Z,28.7
2022-11-04T13:27:38.742Z,28.67
2022-11-04T13:29:18.551Z,28.63
2022-11-04T13:30:58.304Z,28.6
2022-11-04T13:32:38.074Z,28.56
2022-11-04T13:34:17.896Z,28.52
2022-11-04T13:37:37.383Z,28.47
2022-11-04T13:39:17.135Z,28.45
2022-11-04T13:40:56.913Z,28.42
2022-11-04T13:42:36.781Z,28.4
2022-11-04T13:44:16.457Z,28.4
2022-11-04T13:45:56.197Z,28.36
2022-11-04T13:47:36.031Z,28.25
2022-11-04T13:49:15.770Z,28.34
2022-11-04T13:50:55.508Z,28.31
2022-11-04T13:52:35.287Z,28.31
2022-11-04T13:54:15.047Z,28.31
2022-11-04T13:55:54.862Z,28.31
2022-11-04T13:57:34.590Z,28.34
2022-11-04T13:59:14.395Z,28.37
2022-11-04T14:00:54.196Z,28.4
2022-11-04T14:02:33.890Z,28.46
2022-11-04T14:04:13.667Z,28.51
2022-11-04T14:05:53.443Z,28.54
2022-11-04T14:07:33.206Z,28.57
2022-11-04T14:09:12.981Z,28.57
2022-11-04T14:10:52.780Z,28.61
2022-11-04T14:12:32.539Z,28.62
2022-11-04T14:14:13.148Z,28.65
2022-11-04T14:15:52.060Z,28.67
2022-11-04T14:17:31.836Z,66.87
2022-11-04T14:19:11.603Z,41.79
2022-11-04T14:20:51.370Z,28.91
2022-11-04T14:22:31.169Z,28.93
2022-11-04T14:24:10.911Z,28.93
2022-11-04T14:25:50.695Z,28.9
2022-11-04T14:27:30.466Z,28.9
2022-11-04T14:29:10.313Z,28.88
2022-11-04T14:30:50.015Z,28.85
2022-11-04T14:32:29.766Z,28.81
2022-11-04T14:34:09.536Z,28.75
2022-11-04T14:35:49.315Z,28.7
2022-11-04T14:37:29.067Z,28.63
2022-11-04T14:40:48.618Z,28.54
2022-11-04T14:42:28.398Z,28.48
2022-11-04T14:44:08.145Z,28.44
2022-11-04T14:45:47.912Z,28.4
2022-11-04T14:47:27.687Z,28.36
2022-11-04T14:49:07.447Z,28.33
2022-11-04T14:50:47.211Z,28.31
2022-11-04T14:52:26.984Z,28.27
2022-11-04T14:54:06.766Z,28.26
2022-11-04T14:55:46.535Z,28.24
2022-11-04T14:57:26.341Z,28.22
2022-11-04T14:59:06.056Z,28.21
2022-11-04T15:00:45.822Z,28.2
2022-11-04T15:02:25.615Z,28.19
2022-11-04T15:04:05.358Z,28.08
2022-11-04T15:05:45.132Z,28.13
2022-11-04T15:07:24.919Z,28.1
2022-11-04T15:10:44.444Z,28.04
2022-11-04T15:12:24.221Z,28.02
2022-11-04T15:14:04.010Z,28
2022-11-04T15:15:43.739Z,27.97
2022-11-04T15:17:23.623Z,27.93
2022-11-04T15:19:03.278Z,27.91
2022-11-04T15:20:43.044Z,27.9
2022-11-04T15:22:22.821Z,27.87
2022-11-04T15:24:02.579Z,27.84
2022-11-04T15:25:42.356Z,27.82
2022-11-04T15:27:22.127Z,27.79
2022-11-04T15:29:01.880Z,27.7
2022-11-04T15:30:41.642Z,27.75
2022-11-04T15:32:21.424Z,27.74
2022-11-04T15:34:01.246Z,27.72
2022-11-04T15:35:40.953Z,27.7
2022-11-04T15:37:20.734Z,27.68
2022-11-04T15:39:00.489Z,27.66
2022-11-04T15:40:40.260Z,27.65
2022-11-04T15:42:20.090Z,27.62
2022-11-04T15:43:59.782Z,27.59
2022-11-04T15:45:39.582Z,27.55
2022-11-04T15:47:19.328Z,27.49
2022-11-04T15:48:59.084Z,27.43
2022-11-04T15:50:38.866Z,24.98
2022-11-04T15:52:18.629Z,20.67
2022-11-04T15:53:58.391Z,16.84
2022-11-04T15:55:38.175Z,13.2
2022-11-04T15:57:17.920Z,9.79
2022-11-04T15:58:57.709Z,7.14
2022-11-04T16:00:37.470Z,5.26
2022-11-04T16:03:56.992Z,2.73
2022-11-04T16:05:36.782Z,1.99
2022-11-04T16:07:16.596Z,1.51
2022-11-04T16:08:56.306Z,1.15
2022-11-04T16:10:36.156Z,0.97
2022-11-04T16:12:15.863Z,0.8
2022-11-04T16:13:55.592Z,0.67
2022-11-04T16:17:15.168Z,0.52
2022-11-04T16:22:14.476Z,0.39
2022-11-04T16:23:54.195Z,0.41
2022-11-04T16:25:34.056Z,0.39
2022-11-04T16:27:13.732Z,0.34
2022-11-04T16:28:53.514Z,0.33
2022-11-04T16:30:33.330Z,0.37
2022-11-04T16:32:13.050Z,0.33
2022-11-04T16:33:52.815Z,0.33
2022-11-04T16:35:32.582Z,0.33
2022-11-04T16:37:12.338Z,0.36
2022-11-04T16:38:52.116Z,0.34
2022-11-04T16:40:31.882Z,0.34
2022-11-04T16:42:11.646Z,0.36
2022-11-04T16:43:51.420Z,0.35
2022-11-04T16:45:31.231Z,0.33
2022-11-04T16:47:10.955Z,0.32
2022-11-04T16:48:50.711Z,0.37
2022-11-04T16:50:30.532Z,0.34
2022-11-04T16:52:10.262Z,0.37
2022-11-04T16:53:50.010Z,0.32
2022-11-04T16:55:29.859Z,0.35
2022-11-04T16:57:09.596Z,0.37
2022-11-04T16:58:49.308Z,0.37
2022-11-04T17:00:29.121Z,0.31
2022-11-04T17:02:08.866Z,0.36
2022-11-04T17:03:48.665Z,0.37
2022-11-04T17:05:28.432Z,0.34
2022-11-04T17:07:08.150Z,0.33
2022-11-04T17:10:27.693Z,0.38
2022-11-04T17:12:07.471Z,0.36
2022-11-04T17:13:47.225Z,0.38
2022-11-04T17:15:27.039Z,0.38
2022-11-04T17:17:06.762Z,0.35
2022-11-04T17:18:46.543Z,0.39
2022-11-04T17:20:26.357Z,0.35
2022-11-04T17:22:06.133Z,0.39
2022-11-04T17:23:45.889Z,0.39
2022-11-04T17:25:25.630Z,0.36
2022-11-04T17:27:05.460Z,0.35
2022-11-04T17:28:45.160Z,0.34
2022-11-04T17:30:24.918Z,0.39
2022-11-04T17:32:04.664Z,0.38
2022-11-04T17:33:44.437Z,0.33
2022-11-04T17:35:24.200Z,0.35
2022-11-04T17:38:43.732Z,0.34
2022-11-04T17:40:23.498Z,0.34
2022-11-04T17:42:03.262Z,0.37
2022-11-04T17:43:43.043Z,0.33
2022-11-04T17:45:22.825Z,0.37
2022-11-04T17:47:02.634Z,0.33
2022-11-04T17:48:42.339Z,0.37
2022-11-04T17:50:22.105Z,0.37
2022-11-04T17:52:01.937Z,0.34
2022-11-04T17:53:41.631Z,0.34
2022-11-04T17:55:21.411Z,0.37
2022-11-04T17:57:01.230Z,0.38
2022-11-04T17:58:40.956Z,0.36
2022-11-04T18:00:20.715Z,0.36
2022-11-04T18:03:40.252Z,0.33
2022-11-04T18:05:20.025Z,0.34
2022-11-04T18:06:59.780Z,0.36
2022-11-04T18:08:39.545Z,0.32
2022-11-04T18:10:19.408Z,0.35
2022-11-04T18:11:59.092Z,0.32
2022-11-04T18:13:38.879Z,0.33
2022-11-04T18:15:18.665Z,0.36
2022-11-04T18:16:58.401Z,0.35
2022-11-04T18:18:38.149Z,0.35
2022-11-04T18:20:17.973Z,0.36
2022-11-04T18:21:57.789Z,0.32
2022-11-04T18:23:37.496Z,0.34
2022-11-04T18:25:17.235Z,0.32
2022-11-04T18:26:57.044Z,0.37
2022-11-04T18:28:36.778Z,0.32
2022-11-04T18:30:16.611Z,0.32
2022-11-04T18:31:56.302Z,0.34
2022-11-04T18:33:36.053Z,0.36
2022-11-04T18:35:15.882Z,0.35
2022-11-04T18:36:55.648Z,0.33
2022-11-04T18:38:35.359Z,0.34
2022-11-04T18:40:15.142Z,0.34
2022-11-04T18:41:54.954Z,0.32
2022-11-04T18:43:34.668Z,0.33
2022-11-04T18:45:14.446Z,0.31
2022-11-04T18:46:54.253Z,0.36
2022-11-04T18:48:33.958Z,0.32
2022-11-04T18:50:13.749Z,0.35
2022-11-04T18:51:53.529Z,0.33
2022-11-04T18:53:33.297Z,0.32
2022-11-04T18:55:13.105Z,0.32
2022-11-04T18:56:52.802Z,0.31
2022-11-04T18:58:32.628Z,0.33
2022-11-04T19:00:12.426Z,0.31
2022-11-04T19:01:52.113Z,0.34
2022-11-04T19:03:31.936Z,0.34
2022-11-04T19:05:11.625Z,0.34
2022-11-04T19:06:51.451Z,0.3
2022-11-04T19:08:31.183Z,0.35
2022-11-04T19:10:10.982Z,0.3
2022-11-04T19:11:50.698Z,0.34
2022-11-04T19:13:30.475Z,0.35
2022-11-04T19:15:10.252Z,0.33
2022-11-04T19:16:50.027Z,0.33
2022-11-04T19:18:29.785Z,0.35
2022-11-04T19:20:09.544Z,0.38
2022-11-04T19:21:49.303Z,0.36
2022-11-04T19:23:29.113Z,0.34
2022-11-04T19:25:08.854Z,0.32
2022-11-04T19:26:48.609Z,0.35
2022-11-04T19:28:28.400Z,0.33
2022-11-04T19:30:08.143Z,0.32
2022-11-04T19:31:47.927Z,0.31
2022-11-04T19:33:27.675Z,0.31
2022-11-04T19:35:07.482Z,0.33
2022-11-04T19:36:47.210Z,0.31
2022-11-04T19:38:26.989Z,0.31
2022-11-04T19:40:06.749Z,0.34
2022-11-04T19:41:46.530Z,0.31
2022-11-04T19:45:06.057Z,0.3
2022-11-04T19:46:45.812Z,0.31
2022-11-04T19:48:25.580Z,0.3
2022-11-04T19:50:05.361Z,0.32
2022-11-04T19:51:45.125Z,0.31
2022-11-04T19:53:24.880Z,0.32
2022-11-04T19:55:04.699Z,0.3
2022-11-04T19:56:44.437Z,0.29
2022-11-04T19:58:24.230Z,0.33
2022-11-04T20:00:03.957Z,0.33
2022-11-04T20:01:43.739Z,0.32
2022-11-04T20:03:23.522Z,0.33
2022-11-04T20:05:03.258Z,0.3
2022-11-04T20:06:43.024Z,0.32
2022-11-04T20:08:22.828Z,0.33
2022-11-04T20:10:02.577Z,0.32
2022-11-04T20:11:42.438Z,0.3
2022-11-04T20:13:22.090Z,0.31
2022-11-04T20:16:41.689Z,0.3
2022-11-04T20:18:21.471Z,0.29
2022-11-04T20:20:01.238Z,0.32
2022-11-04T20:21:40.977Z,0.32
2022-11-04T20:23:20.737Z,0.3
2022-11-04T20:25:00.581Z,0.3
2022-11-04T20:26:40.249Z,0.28
2022-11-04T20:28:20.031Z,0.32
2022-11-04T20:29:59.852Z,0.29
2022-11-04T20:31:39.534Z,0.3
2022-11-04T20:33:19.305Z,0.33
2022-11-04T20:34:59.075Z,0.3
2022-11-04T20:36:38.882Z,0.34
2022-11-04T20:38:18.638Z,0.31
2022-11-04T20:39:58.433Z,0.31
2022-11-04T20:41:38.168Z,0.29
2022-11-04T20:43:17.947Z,0.31
2022-11-04T20:44:57.766Z,0.31
2022-11-04T20:46:37.454Z,0.32
2022-11-04T20:48:17.215Z,0.29
2022-11-04T20:49:56.990Z,0.31
2022-11-04T20:51:36.774Z,0.32
2022-11-04T20:53:16.513Z,0.3
2022-11-04T20:54:56.297Z,0.3
2022-11-04T20:58:15.843Z,0.3
2022-11-04T20:59:55.572Z,0.28
2022-11-04T21:01:35.399Z,0.27
2022-11-04T21:03:15.127Z,0.28
2022-11-04T21:04:54.897Z,0.29
2022-11-04T21:06:34.664Z,0.28
2022-11-04T21:08:14.431Z,0.3
2022-11-04T21:09:54.185Z,0.3
2022-11-04T21:11:33.962Z,0.3
2022-11-04T21:13:13.752Z,0.27
2022-11-04T21:14:53.493Z,0.31
2022-11-04T21:16:33.247Z,0.28
2022-11-04T21:18:13.028Z,0.28
2022-11-04T21:19:52.798Z,0.29
2022-11-04T21:21:32.558Z,0.28
2022-11-04T21:23:12.376Z,0.31
2022-11-04T21:24:52.122Z,0.3
2022-11-04T21:26:31.877Z,0.28
2022-11-04T21:28:11.632Z,0.3
2022-11-04T21:29:51.411Z,0.28
2022-11-04T21:31:31.162Z,0.29
2022-11-04T21:33:10.932Z,0.3
2022-11-04T21:34:50.704Z,0.28
2022-11-04T21:36:30.516Z,0.3
2022-11-04T21:38:10.234Z,0.27
2022-11-04T21:39:49.998Z,0.27
2022-11-04T21:41:29.797Z,0.28
2022-11-04T21:43:09.526Z,0.29
2022-11-04T21:44:49.301Z,0.27
2022-11-04T21:46:29.076Z,0.28
2022-11-04T21:48:08.834Z,0.31
2022-11-04T21:49:48.604Z,0.27
2022-11-04T21:51:28.389Z,0.29
2022-11-04T21:53:08.137Z,0.32
2022-11-04T21:54:47.911Z,0.31
2022-11-04T21:56:27.664Z,0.31
2022-11-04T21:58:07.439Z,0.31
2022-11-04T21:59:47.226Z,0.33
2022-11-04T22:01:26.984Z,0.31
2022-11-04T22:03:06.757Z,0.32
2022-11-04T22:04:46.509Z,0.3
2022-11-04T22:06:26.289Z,0.31
2022-11-04T22:08:06.053Z,0.29
2022-11-04T22:09:45.821Z,0.3
2022-11-04T22:11:25.638Z,0.29
2022-11-04T22:13:05.371Z,0.29
2022-11-04T22:14:45.114Z,0.32
2022-11-04T22:16:24.891Z,0.3
2022-11-04T22:18:04.647Z,0.3
2022-11-04T22:19:44.410Z,0.26
2022-11-04T22:21:24.178Z,0.28
2022-11-04T22:23:03.946Z,0.3
2022-11-04T22:24:43.727Z,0.28
2022-11-04T22:26:23.478Z,0.31
2022-11-04T22:28:03.260Z,0.29
2022-11-04T22:29:43.021Z,0.3
2022-11-04T22:31:22.879Z,0.27
2022-11-04T22:33:02.560Z,0.3
2022-11-04T22:34:42.323Z,0.27
2022-11-04T22:36:22.094Z,0.3
2022-11-04T22:38:01.929Z,0.3
2022-11-04T22:39:41.651Z,0.3